createdAt,value
2023-01-20T00:00:05.332Z,47.90
2023-01-20T00:02:32.126Z,47.90
2023-01-20T00:04:58.894Z,47.90
2023-01-20T00:07:25.614Z,47.90
2023-01-20T00:09:52.316Z,47.90
2023-01-20T00:12:19.088Z,47.80
2023-01-20T00:14:45.787Z,47.80
2023-01-20T00:17:12.556Z,47.80
2023-01-20T00:19:39.241Z,47.70
2023-01-20T00:22:11.978Z,47.70
2023-01-20T00:24:38.741Z,47.80
2023-01-20T00:27:06.130Z,47.70
2023-01-20T00:29:38.989Z,47.80
2023-01-20T00:32:05.672Z,47.70
2023-01-20T00:34:32.350Z,47.80
2023-01-20T00:36:59.022Z,47.70
2023-01-20T00:39:25.727Z,47.70
2023-01-20T00:41:52.402Z,47.80
2023-01-20T00:44:19.092Z,47.70
2023-01-20T00:46:45.784Z,47.80
2023-01-20T00:49:12.549Z,47.80
2023-01-20T00:51:39.227Z,47.70
2023-01-20T00:54:05.937Z,47.80
2023-01-20T00:56:35.630Z,47.60
2023-01-20T00:59:02.320Z,47.80
2023-01-20T01:01:35.207Z,47.80
2023-01-20T01:04:01.959Z,47.70
2023-01-20T01:06:28.697Z,47.80
2023-01-20T01:08:55.705Z,47.70
2023-01-20T01:11:22.419Z,47.70
2023-01-20T01:13:49.382Z,47.70
2023-01-20T01:16:16.240Z,47.80
2023-01-20T01:18:43.262Z,47.70
2023-01-20T01:21:10.438Z,47.70
2023-01-20T01:23:37.417Z,47.80
2023-01-20T01:26:04.301Z,47.60
2023-01-20T01:28:31.072Z,47.70
2023-01-20T01:31:04.639Z,47.70
2023-01-20T01:33:31.476Z,47.60
2023-01-20T01:35:58.383Z,47.60
2023-01-20T01:38:25.087Z,47.60
2023-01-20T01:40:52.013Z,47.60
2023-01-20T01:43:28.752Z,47.50
2023-01-20T01:45:55.664Z,47.60
2023-01-20T01:48:23.660Z,47.60
2023-01-20T01:50:54.487Z,47.40
2023-01-20T01:53:21.290Z,47.60
2023-01-20T01:55:49.668Z,47.30
2023-01-20T01:58:17.200Z,47.60
2023-01-20T02:00:43.948Z,47.40
2023-01-20T02:03:10.916Z,47.40
2023-01-20T02:05:37.680Z,47.60
2023-01-20T02:08:04.512Z,47.50
2023-01-20T02:10:31.589Z,47.50
2023-01-20T02:12:58.269Z,47.70
2023-01-20T02:15:26.553Z,47.60
2023-01-20T02:18:08.684Z,47.60
2023-01-20T02:20:44.458Z,47.40
2023-01-20T02:23:29.977Z,47.60
2023-01-20T02:25:59.666Z,47.40
2023-01-20T02:28:26.350Z,47.60
2023-01-20T02:30:56.282Z,48.20
2023-01-20T02:33:25.999Z,47.20
2023-01-20T02:35:56.834Z,47.40
2023-01-20T02:38:26.645Z,47.30
2023-01-20T02:40:56.462Z,47.20
2023-01-20T02:43:26.255Z,47.20
2023-01-20T02:46:16.039Z,47.20
2023-01-20T02:49:12.112Z,47.40
2023-01-20T02:51:42.173Z,47.20
2023-01-20T02:54:09.876Z,47.50
2023-01-20T02:56:36.687Z,47.20
2023-01-20T02:59:05.245Z,47.40
2023-01-20T03:01:36.587Z,47.20
2023-01-20T03:04:03.981Z,47.20
2023-01-20T03:06:32.443Z,47.30
2023-01-20T03:09:00.538Z,47.20
2023-01-20T03:11:27.584Z,47.30
2023-01-20T03:14:05.338Z,47.20
2023-01-20T03:16:32.119Z,47.20
2023-01-20T03:18:58.866Z,47.20
2023-01-20T03:21:25.587Z,47.20
2023-01-20T03:23:53.289Z,47.30
2023-01-20T03:26:20.729Z,47.20
2023-01-20T03:28:54.768Z,47.20
2023-01-20T03:31:23.685Z,47.30
2023-01-20T03:33:51.640Z,47.20
2023-01-20T03:36:18.599Z,47.20
2023-01-20T03:38:45.321Z,47.20
2023-01-20T03:41:12.549Z,47.30
2023-01-20T03:43:59.557Z,47.30
2023-01-20T03:46:29.388Z,47.20
2023-01-20T03:49:16.389Z,47.20
2023-01-20T03:52:09.504Z,47.20
2023-01-20T03:54:44.094Z,47.20
2023-01-20T03:57:14.811Z,47.20
2023-01-20T03:59:41.903Z,47.20
2023-01-20T04:02:08.756Z,47.20
2023-01-20T04:04:36.097Z,47.20
2023-01-20T04:07:04.088Z,47.20
2023-01-20T04:09:31.841Z,47.20
2023-01-20T04:11:59.106Z,47.20
2023-01-20T04:14:26.949Z,47.20
2023-01-20T04:16:54.566Z,47.20
2023-01-20T04:19:21.420Z,47.20
2023-01-20T04:22:08.367Z,47.20
2023-01-20T04:24:40.920Z,47.20
2023-01-20T04:27:07.940Z,47.20
2023-01-20T04:29:34.753Z,47.20
2023-01-20T04:32:01.852Z,47.20
2023-01-20T04:34:28.902Z,47.20
2023-01-20T04:36:55.943Z,47.20
2023-01-20T04:39:22.767Z,47.20
2023-01-20T04:41:49.579Z,47.20
2023-01-20T04:44:16.387Z,47.20
2023-01-20T04:46:43.253Z,47.20
2023-01-20T04:49:11.225Z,47.20
2023-01-20T04:51:38.050Z,47.20
2023-01-20T04:54:04.962Z,47.20
2023-01-20T04:56:31.693Z,47.20
2023-01-20T04:58:58.630Z,47.20
2023-01-20T05:01:32.298Z,47.20
2023-01-20T05:03:59.077Z,47.20
2023-01-20T05:06:25.870Z,47.20
2023-01-20T05:08:52.675Z,47.20
2023-01-20T05:11:19.530Z,47.20
2023-01-20T05:13:46.494Z,47.20
2023-01-20T05:16:13.285Z,47.20
2023-01-20T05:18:40.281Z,47.20
2023-01-20T05:21:08.930Z,47.20
2023-01-20T05:23:36.090Z,47.20
2023-01-20T05:26:02.872Z,47.20
2023-01-20T05:28:29.666Z,47.20
2023-01-20T05:30:56.885Z,47.20
2023-01-20T05:33:23.696Z,47.20
2023-01-20T05:35:50.773Z,47.20
2023-01-20T05:38:17.833Z,47.20
2023-01-20T05:40:44.643Z,47.20
2023-01-20T05:43:13.008Z,47.20
2023-01-20T05:45:39.997Z,47.20
2023-01-20T05:48:06.767Z,47.20
2023-01-20T05:50:33.537Z,47.20
2023-01-20T05:53:00.452Z,47.20
2023-01-20T05:55:27.285Z,47.20
2023-01-20T05:57:54.084Z,47.20
2023-01-20T06:00:21.333Z,47.20
2023-01-20T06:02:48.177Z,47.20
2023-01-20T06:05:15.357Z,47.20
2023-01-20T06:07:42.259Z,47.20
2023-01-20T06:10:10.010Z,47.20
2023-01-20T06:12:36.843Z,47.20
2023-01-20T06:15:03.983Z,47.20
2023-01-20T06:17:30.822Z,47.60
2023-01-20T06:19:57.793Z,47.60
2023-01-20T06:22:24.573Z,47.80
2023-01-20T06:24:57.385Z,47.90
2023-01-20T06:27:24.402Z,47.70
2023-01-20T06:29:51.228Z,47.90
2023-01-20T06:32:21.378Z,47.60
2023-01-20T06:34:48.268Z,47.70
2023-01-20T06:37:25.319Z,47.70
2023-01-20T06:39:52.320Z,47.70
2023-01-20T06:42:22.254Z,47.80
2023-01-20T06:44:49.014Z,47.70
2023-01-20T06:47:15.832Z,47.80
2023-01-20T06:49:42.669Z,47.70
2023-01-20T06:52:09.910Z,47.70
2023-01-20T06:54:36.825Z,47.70
2023-01-20T06:57:03.672Z,47.70
2023-01-20T06:59:30.623Z,47.70
2023-01-20T07:01:57.511Z,47.60
2023-01-20T07:04:24.358Z,47.70
2023-01-20T07:06:51.181Z,47.60
2023-01-20T07:09:17.920Z,47.50
2023-01-20T07:11:45.046Z,47.60
2023-01-20T07:14:11.823Z,47.40
2023-01-20T07:16:38.797Z,47.50
2023-01-20T07:19:05.627Z,47.50
2023-01-20T07:21:32.509Z,47.30
2023-01-20T07:24:00.390Z,47.50
2023-01-20T07:26:27.694Z,47.30
2023-01-20T07:28:54.643Z,47.50
2023-01-20T07:31:25.055Z,47.40
2023-01-20T07:33:52.099Z,47.60
2023-01-20T07:36:18.925Z,47.50
2023-01-20T07:38:49.507Z,47.40
2023-01-20T07:41:16.616Z,47.50
2023-01-20T07:43:43.744Z,47.50
2023-01-20T07:46:10.620Z,47.50
2023-01-20T07:48:37.509Z,47.40
2023-01-20T07:51:07.707Z,47.40
2023-01-20T07:53:38.621Z,47.30
2023-01-20T07:56:06.195Z,47.20
2023-01-20T07:58:33.602Z,47.40
2023-01-20T08:01:10.328Z,47.40
2023-01-20T08:03:37.356Z,47.40
2023-01-20T08:06:07.899Z,47.40
2023-01-20T08:08:34.751Z,47.20
2023-01-20T08:11:01.793Z,47.40
2023-01-20T08:13:28.927Z,47.20
2023-01-20T08:15:56.018Z,47.30
2023-01-20T08:18:22.765Z,47.40
2023-01-20T08:20:49.550Z,47.20
2023-01-20T08:23:16.305Z,47.20
2023-01-20T08:25:43.115Z,47.20
2023-01-20T08:28:10.007Z,47.20
2023-01-20T08:30:36.891Z,47.20
2023-01-20T08:33:03.700Z,47.20
2023-01-20T08:35:30.451Z,47.20
2023-01-20T08:37:57.210Z,47.20
2023-01-20T08:40:24.227Z,47.20
2023-01-20T08:42:51.114Z,47.20
2023-01-20T08:45:17.991Z,47.20
2023-01-20T08:47:46.107Z,47.20
2023-01-20T08:50:13.340Z,47.20
2023-01-20T08:52:40.536Z,47.20
2023-01-20T08:55:08.870Z,47.20
2023-01-20T08:57:35.823Z,47.20
2023-01-20T09:00:02.909Z,47.20
2023-01-20T09:02:29.858Z,47.20
2023-01-20T09:04:57.095Z,47.20
2023-01-20T09:07:24.142Z,47.20
2023-01-20T09:09:51.362Z,47.20
2023-01-20T09:12:18.600Z,47.30
2023-01-20T09:14:45.352Z,47.30
2023-01-20T09:17:12.023Z,47.20
2023-01-20T09:19:38.676Z,47.20
2023-01-20T09:22:05.365Z,47.20
2023-01-20T09:24:32.168Z,47.30
2023-01-20T09:26:58.940Z,47.30
2023-01-20T09:29:26.098Z,47.20
2023-01-20T09:31:53.565Z,47.30
2023-01-20T09:34:24.579Z,47.20
2023-01-20T09:36:52.281Z,47.20
2023-01-20T09:39:37.695Z,47.20
2023-01-20T09:42:43.477Z,47.20
2023-01-20T09:45:22.899Z,47.20
2023-01-20T09:47:49.822Z,47.20
2023-01-20T09:50:41.436Z,47.20
2023-01-20T09:53:16.980Z,47.20
2023-01-20T09:55:57.038Z,47.20
2023-01-20T09:58:42.679Z,47.20
2023-01-20T10:01:16.091Z,47.20
2023-01-20T10:03:48.765Z,47.20
2023-01-20T10:06:36.075Z,47.20
2023-01-20T10:09:06.210Z,47.20
2023-01-20T10:11:43.508Z,47.20
2023-01-20T10:14:10.228Z,47.20
2023-01-20T10:16:39.983Z,47.20
2023-01-20T10:19:15.833Z,47.20
2023-01-20T10:21:47.423Z,47.20
2023-01-20T10:24:16.124Z,47.20
2023-01-20T10:26:48.940Z,47.20
2023-01-20T10:29:36.260Z,47.20
2023-01-20T10:32:04.573Z,47.20
2023-01-20T10:34:40.669Z,47.30
2023-01-20T10:37:08.143Z,47.30
2023-01-20T10:39:58.136Z,47.20
2023-01-20T10:42:25.533Z,47.20
2023-01-20T10:44:52.272Z,47.10
2023-01-20T10:47:26.163Z,47.10
2023-01-20T10:49:56.482Z,47.10
2023-01-20T10:52:29.454Z,47.10
2023-01-20T10:55:20.549Z,47.00
2023-01-20T10:57:51.187Z,47.10
2023-01-20T11:00:23.232Z,47.30
2023-01-20T11:02:50.257Z,47.00
2023-01-20T11:05:34.770Z,47.20
2023-01-20T11:08:02.234Z,47.10
2023-01-20T11:10:29.625Z,47.20
2023-01-20T11:13:00.582Z,47.10
2023-01-20T11:15:31.066Z,47.10
2023-01-20T11:18:16.999Z,47.10
2023-01-20T11:20:43.990Z,47.10
2023-01-20T11:23:19.983Z,47.10
2023-01-20T11:26:11.646Z,47.10
2023-01-20T11:28:48.705Z,47.10
2023-01-20T11:31:15.986Z,47.10
2023-01-20T11:34:12.698Z,47.00
2023-01-20T11:36:39.678Z,47.10
2023-01-20T11:39:06.491Z,47.00
2023-01-20T11:41:33.360Z,46.90
2023-01-20T11:44:00.567Z,47.00
2023-01-20T11:46:31.341Z,47.00
2023-01-20T11:49:26.142Z,47.00
2023-01-20T11:51:56.347Z,47.00
2023-01-20T11:54:32.751Z,47.00
2023-01-20T11:57:01.520Z,46.90
2023-01-20T11:59:29.023Z,47.00
2023-01-20T12:01:58.083Z,46.90
2023-01-20T12:04:43.733Z,47.00
2023-01-20T12:07:28.250Z,46.90
2023-01-20T12:09:56.151Z,46.90
2023-01-20T12:12:40.031Z,47.60
2023-01-20T12:15:10.132Z,47.00
2023-01-20T12:18:09.611Z,47.00
2023-01-20T12:20:54.657Z,46.90
2023-01-20T12:23:56.295Z,47.10
2023-01-20T12:26:30.329Z,47.00
2023-01-20T12:29:04.888Z,47.10
2023-01-20T12:31:50.679Z,47.00
2023-01-20T12:34:20.073Z,47.60
2023-01-20T12:37:06.079Z,47.20
2023-01-20T12:39:39.598Z,46.90
2023-01-20T12:42:06.421Z,47.20
2023-01-20T12:44:38.556Z,47.00
2023-01-20T12:47:11.331Z,47.00
2023-01-20T12:49:45.189Z,47.00
2023-01-20T12:52:30.451Z,47.00
2023-01-20T12:55:09.358Z,47.00
2023-01-20T12:57:48.465Z,46.90
2023-01-20T13:00:18.684Z,47.00
2023-01-20T13:03:04.471Z,46.90
2023-01-20T13:05:31.251Z,46.90
2023-01-20T13:08:01.341Z,46.90
2023-01-20T13:10:34.183Z,47.00
2023-01-20T13:13:05.487Z,47.00
2023-01-20T13:15:42.398Z,46.90
2023-01-20T13:18:26.815Z,46.80
2023-01-20T13:20:53.985Z,46.90
2023-01-20T13:23:22.865Z,47.00
2023-01-20T13:25:49.560Z,46.80
2023-01-20T13:28:17.300Z,46.90
2023-01-20T13:30:48.149Z,46.90
2023-01-20T13:33:16.077Z,46.90
2023-01-20T13:35:46.881Z,46.90
2023-01-20T13:38:22.958Z,46.90
2023-01-20T13:40:50.916Z,47.00
2023-01-20T13:43:21.031Z,46.90
2023-01-20T13:45:47.798Z,47.00
2023-01-20T13:48:15.042Z,47.00
2023-01-20T13:50:42.506Z,47.00
2023-01-20T13:53:21.468Z,47.00
2023-01-20T13:55:51.193Z,47.00
2023-01-20T13:58:24.395Z,46.90
2023-01-20T14:00:58.496Z,47.00
2023-01-20T14:03:35.320Z,46.90
2023-01-20T14:06:08.685Z,47.10
2023-01-20T14:08:42.462Z,46.90
2023-01-20T14:11:16.260Z,47.00
2023-01-20T14:13:44.214Z,46.90
2023-01-20T14:16:23.541Z,46.80
2023-01-20T14:18:50.701Z,46.90
2023-01-20T14:21:20.394Z,46.80
2023-01-20T14:23:47.623Z,46.80
2023-01-20T14:26:16.023Z,46.90
2023-01-20T14:29:02.011Z,46.90
2023-01-20T14:31:38.015Z,46.90
2023-01-20T14:34:23.591Z,47.00
2023-01-20T14:36:50.920Z,47.00
2023-01-20T14:39:19.453Z,46.90
2023-01-20T14:41:55.934Z,47.00
2023-01-20T14:44:23.413Z,46.90
2023-01-20T14:46:51.200Z,47.00
2023-01-20T14:49:18.426Z,47.00
2023-01-20T14:51:46.094Z,47.00
2023-01-20T14:54:31.702Z,47.00
2023-01-20T14:57:21.491Z,47.00
2023-01-20T15:00:07.653Z,47.00
2023-01-20T15:02:34.740Z,47.00
2023-01-20T15:05:01.803Z,47.10
2023-01-20T15:07:28.542Z,47.00
2023-01-20T15:09:56.326Z,47.00
2023-01-20T15:12:40.672Z,47.00
2023-01-20T15:15:10.673Z,47.00
2023-01-20T15:17:37.451Z,47.10
2023-01-20T15:20:04.266Z,46.80
2023-01-20T15:22:31.074Z,47.10
2023-01-20T15:25:02.022Z,47.10
2023-01-20T15:27:30.488Z,47.20
2023-01-20T15:30:01.234Z,46.50
2023-01-20T15:32:27.943Z,46.70
2023-01-20T15:34:54.669Z,47.00
2023-01-20T15:37:21.411Z,46.90
2023-01-20T15:39:48.100Z,46.90
2023-01-20T15:42:15.462Z,47.00
2023-01-20T15:44:42.157Z,46.80
2023-01-20T15:47:31.207Z,47.00
2023-01-20T15:49:58.173Z,46.90
2023-01-20T15:52:24.944Z,47.00
2023-01-20T15:54:51.676Z,46.90
2023-01-20T15:57:18.981Z,46.90
2023-01-20T15:59:46.164Z,46.90
2023-01-20T16:02:19.678Z,47.20
2023-01-20T16:04:46.427Z,47.30
2023-01-20T16:07:16.822Z,47.30
2023-01-20T16:09:43.578Z,47.30
2023-01-20T16:12:13.835Z,47.30
2023-01-20T16:14:40.622Z,47.30
2023-01-20T16:17:14.493Z,47.30
2023-01-20T16:19:41.273Z,47.20
2023-01-20T16:22:08.719Z,47.30
2023-01-20T16:24:35.403Z,47.30
2023-01-20T16:27:02.873Z,47.30
2023-01-20T16:40:18.427Z,47.30
2023-01-20T16:42:45.565Z,47.30
2023-01-20T16:45:23.281Z,47.20
2023-01-20T16:47:50.191Z,47.30
2023-01-20T16:50:17.533Z,47.30
2023-01-20T16:52:44.501Z,47.30
2023-01-20T16:55:13.505Z,47.20
2023-01-20T16:57:40.465Z,47.30
2023-01-20T17:00:07.946Z,47.30
2023-01-20T17:02:34.682Z,47.30
2023-01-20T17:05:01.387Z,47.30
2023-01-20T17:07:28.096Z,47.20
2023-01-20T17:10:00.934Z,47.30
2023-01-20T17:12:27.600Z,47.30
2023-01-20T17:14:54.327Z,47.10
2023-01-20T17:17:22.537Z,47.00
2023-01-20T17:19:55.445Z,47.10
2023-01-20T17:22:22.131Z,47.10
2023-01-20T17:24:48.843Z,47.30
2023-01-20T17:27:15.624Z,47.40
2023-01-20T17:29:48.529Z,47.10
2023-01-20T17:32:16.217Z,47.00
2023-01-20T17:34:42.942Z,47.40
2023-01-20T17:37:09.650Z,46.90
2023-01-20T17:39:37.379Z,47.40
2023-01-20T17:42:04.135Z,47.40
2023-01-20T17:44:30.867Z,47.40
2023-01-20T17:46:57.553Z,47.80
2023-01-20T17:52:57.177Z,47.90
2023-01-20T17:55:23.987Z,47.90
2023-01-20T17:57:51.194Z,47.90
2023-01-20T18:00:18.456Z,48.00
2023-01-20T18:02:45.391Z,48.10
2023-01-20T18:05:15.217Z,48.10
2023-01-20T18:07:41.881Z,48.30
2023-01-20T18:10:15.222Z,48.20
2023-01-20T18:12:42.114Z,48.40
2023-01-20T18:15:09.599Z,48.30
2023-01-20T18:17:37.166Z,48.40
2023-01-20T18:20:04.050Z,48.40
2023-01-20T18:22:30.928Z,48.30
2023-01-20T18:24:57.827Z,48.40
2023-01-20T18:27:24.541Z,48.40
2023-01-20T18:29:51.279Z,48.50
2023-01-20T18:32:18.003Z,48.40
2023-01-20T18:34:44.801Z,48.50
2023-01-20T18:37:11.597Z,48.40
2023-01-20T18:39:38.905Z,48.50
2023-01-20T18:42:06.145Z,48.50
2023-01-20T18:44:39.131Z,49.10
2023-01-20T18:47:06.301Z,48.60
2023-01-20T18:49:32.993Z,48.60
2023-01-20T18:51:59.711Z,48.80
2023-01-20T18:54:27.133Z,48.60
2023-01-20T18:56:53.901Z,48.60
2023-01-20T18:59:20.883Z,48.70
2023-01-20T19:01:49.792Z,48.70
2023-01-20T19:04:16.656Z,48.70
2023-01-20T19:06:44.307Z,48.80
2023-01-20T19:09:11.860Z,48.80
2023-01-20T19:11:42.188Z,48.90
2023-01-20T19:14:11.285Z,49.00
2023-01-20T19:16:39.243Z,48.80
2023-01-20T19:19:06.630Z,49.00
2023-01-20T19:21:33.505Z,49.00
2023-01-20T19:24:01.572Z,48.90
2023-01-20T19:26:28.442Z,49.10
2023-01-20T19:28:56.196Z,49.00
2023-01-20T19:31:22.963Z,49.20
2023-01-20T19:33:50.186Z,49.10
2023-01-20T19:36:17.627Z,49.00
2023-01-20T19:38:51.792Z,48.90
2023-01-20T19:41:23.075Z,49.10
2023-01-20T19:43:55.468Z,48.90
2023-01-20T19:46:24.498Z,49.20
2023-01-20T19:48:51.853Z,48.90
2023-01-20T19:51:19.861Z,49.10
2023-01-20T19:53:46.946Z,49.10
2023-01-20T19:56:15.295Z,49.10
2023-01-20T19:58:42.428Z,49.20
2023-01-20T20:01:16.221Z,49.00
2023-01-20T20:03:43.119Z,49.20
2023-01-20T20:06:29.120Z,49.10
2023-01-20T20:08:56.935Z,49.20
2023-01-20T20:11:23.646Z,49.20
2023-01-20T20:13:53.011Z,49.20
2023-01-20T20:16:19.828Z,49.20
2023-01-20T20:18:51.038Z,49.10
2023-01-20T20:21:17.821Z,49.20
2023-01-20T20:23:44.599Z,49.10
2023-01-20T20:26:11.947Z,49.10
2023-01-20T20:28:44.882Z,49.20
2023-01-20T20:31:12.195Z,49.10
2023-01-20T20:33:39.098Z,49.20
2023-01-20T20:36:07.071Z,49.10
2023-01-20T20:38:34.666Z,49.20
2023-01-20T20:41:01.355Z,49.20
2023-01-20T20:43:34.743Z,49.20
2023-01-20T20:46:01.708Z,49.20
2023-01-20T20:48:28.497Z,49.20
2023-01-20T20:51:05.134Z,49.20
2023-01-20T20:53:31.825Z,49.20
2023-01-20T20:56:03.478Z,49.10
2023-01-20T20:58:31.798Z,49.40
2023-01-20T21:01:01.127Z,49.10
2023-01-20T21:03:27.951Z,49.20
2023-01-20T21:05:54.771Z,49.10
2023-01-20T21:08:21.672Z,49.10
2023-01-20T21:10:48.393Z,49.10
2023-01-20T21:13:15.081Z,49.10
2023-01-20T21:15:45.283Z,49.10
2023-01-20T21:18:12.642Z,49.20
2023-01-20T21:20:39.391Z,49.20
2023-01-20T21:23:06.177Z,49.10
2023-01-20T21:25:33.059Z,49.20
2023-01-20T21:27:59.917Z,49.20
2023-01-20T21:30:32.923Z,49.20
2023-01-20T21:32:59.632Z,49.30
2023-01-20T21:35:26.703Z,49.10
2023-01-20T21:37:53.406Z,49.20
2023-01-20T21:40:20.071Z,49.10
2023-01-20T21:42:46.882Z,49.10
2023-01-20T21:45:13.645Z,49.20
2023-01-20T21:47:40.341Z,49.10
2023-01-20T21:50:25.663Z,49.10
2023-01-20T21:52:52.510Z,49.20
2023-01-20T21:55:19.360Z,49.20
2023-01-20T21:57:46.844Z,49.20
2023-01-20T22:00:14.784Z,49.10
2023-01-20T22:02:43.580Z,49.10
2023-01-20T22:05:10.961Z,49.10
2023-01-20T22:07:38.064Z,49.10
2023-01-20T22:10:11.153Z,49.10
2023-01-20T22:12:37.935Z,49.00
2023-01-20T22:15:05.102Z,49.00
2023-01-20T22:17:32.580Z,49.10
2023-01-20T22:20:02.290Z,49.00
2023-01-20T22:22:29.524Z,49.10
2023-01-20T22:24:56.803Z,48.90
2023-01-20T22:27:23.588Z,49.10
2023-01-20T22:29:50.330Z,49.00
2023-01-20T22:32:17.075Z,49.00
2023-01-20T22:34:43.945Z,49.10
2023-01-20T22:37:10.665Z,49.10
2023-01-20T22:39:37.405Z,49.10
2023-01-20T22:42:04.224Z,49.20
2023-01-20T22:44:30.957Z,49.10
2023-01-20T22:46:57.766Z,49.10
2023-01-20T22:49:24.545Z,49.10
2023-01-20T22:51:52.147Z,49.20
2023-01-20T22:54:18.885Z,49.20
2023-01-20T22:56:45.698Z,49.10
2023-01-20T22:59:12.841Z,49.10
2023-01-20T23:01:39.566Z,49.20
2023-01-20T23:04:06.349Z,49.10
2023-01-20T23:06:33.973Z,49.10
2023-01-20T23:09:01.439Z,49.10
2023-01-20T23:11:28.203Z,49.10
2023-01-20T23:13:55.023Z,49.00
2023-01-20T23:16:24.721Z,49.10
2023-01-20T23:18:51.955Z,49.10
2023-01-20T23:21:18.976Z,49.00
2023-01-20T23:23:45.721Z,49.00
2023-01-20T23:26:12.419Z,49.00
2023-01-20T23:28:39.137Z,49.00
2023-01-20T23:31:06.716Z,49.10
2023-01-20T23:33:34.908Z,49.10
2023-01-20T23:36:07.135Z,49.00
2023-01-20T23:38:33.915Z,49.10
2023-01-20T23:41:00.857Z,49.00
2023-01-20T23:43:27.649Z,49.00
2023-01-20T23:45:58.241Z,49.00
2023-01-20T23:48:24.995Z,49.00
2023-01-20T23:50:51.839Z,49.00
2023-01-20T23:53:18.560Z,49.00
2023-01-20T23:55:45.199Z,49.00
2023-01-20T23:58:11.886Z,48.90
